Time;durP1;ratioP1;P1;durP2;ratioP2;P2;SDS_P1;SDS_P2;PMS_P1;PMS_P2;Temp;Humidity;BMP_temperature;BMP_pressure;BME280_temperature;BME280_humidity;BME280_pressure;Samples;Min_cycle;Max_cycle;Signal;HPM_P1;HPM_P2
2023/03/18 00:01:27;;;;;;;22.60;10.50;;;7.20;99.90;;;;;;5068743;28;20403;-69
2023/03/18 00:03:52;;;;;;;24.50;11.02;;;7.20;99.90;;;;;;5060911;28;20036;-67
2023/03/18 00:06:19;;;;;;;23.88;10.80;;;7.10;99.90;;;;;;5061123;28;20025;-68
2023/03/18 00:08:46;;;;;;;26.75;10.35;;;7.10;99.90;;;;;;5056788;28;20385;-68
2023/03/18 00:11:14;;;;;;;20.45;10.68;;;7.10;99.90;;;;;;5058016;28;20790;-68
2023/03/18 00:13:41;;;;;;;23.33;11.13;;;7.10;99.90;;;;;;5059603;28;20124;-69
2023/03/18 00:16:10;;;;;;;22.60;10.40;;;7.10;99.90;;;;;;5039018;28;20059;-68
2023/03/18 00:18:36;;;;;;;22.73;10.25;;;7.00;99.90;;;;;;5065812;28;20051;-68
2023/03/18 00:21:03;;;;;;;19.65;9.95;;;6.90;99.90;;;;;;5052885;28;20067;-63
2023/03/18 00:23:30;;;;;;;20.75;10.10;;;6.90;99.90;;;;;;5069412;28;20060;-68
2023/03/18 00:25:57;;;;;;;24.58;10.35;;;6.90;99.90;;;;;;5065895;28;20028;-68
2023/03/18 00:28:23;;;;;;;19.33;10.25;;;6.90;99.90;;;;;;5046374;28;20043;-67
2023/03/18 00:30:50;;;;;;;20.52;10.07;;;6.90;99.90;;;;;;5056368;28;20119;-66
2023/03/18 00:33:16;;;;;;;20.95;9.98;;;6.80;99.90;;;;;;5051854;28;20033;-68
2023/03/18 00:35:44;;;;;;;18.17;8.85;;;6.80;99.90;;;;;;5049077;28;20040;-67
2023/03/18 00:38:19;;;;;;;21.83;9.90;;;6.80;99.90;;;;;;5061362;28;20058;-68
2023/03/18 00:41:09;;;;;;;18.58;9.80;;;6.70;99.90;;;;;;5052371;28;20409;-68
2023/03/18 00:43:48;;;;;;;23.98;9.75;;;6.60;99.90;;;;;;5055387;28;20101;-68
2023/03/18 00:46:29;;;;;;;21.95;9.65;;;6.60;99.90;;;;;;5039708;28;20043;-67
2023/03/18 00:48:58;;;;;;;21.08;10.18;;;6.50;99.90;;;;;;5059516;28;20041;-68
2023/03/18 00:51:27;;;;;;;22.80;9.52;;;6.50;99.90;;;;;;5058683;28;20556;-68
2023/03/18 00:53:57;;;;;;;20.38;10.07;;;6.50;99.90;;;;;;5057624;28;20114;-68
2023/03/18 00:56:27;;;;;;;22.33;9.73;;;6.50;99.90;;;;;;5054515;28;20025;-63
2023/03/18 00:58:53;;;;;;;22.10;9.68;;;6.50;99.90;;;;;;5064408;28;20041;-66
2023/03/18 01:01:20;;;;;;;19.98;9.13;;;6.40;99.90;;;;;;5051447;28;20139;-68
2023/03/18 01:03:48;;;;;;;20.10;9.43;;;6.30;99.90;;;;;;5060562;28;20497;-68
2023/03/18 01:06:22;;;;;;;17.15;9.15;;;6.30;99.90;;;;;;5041426;28;20158;-68
2023/03/18 01:08:49;;;;;;;22.17;9.40;;;6.40;99.90;;;;;;5056116;28;20060;-68
2023/03/18 01:11:15;;;;;;;19.88;9.55;;;6.40;99.90;;;;;;5049517;28;20085;-68
2023/03/18 01:13:41;;;;;;;23.23;9.93;;;6.40;99.90;;;;;;5061925;28;20025;-68
2023/03/18 01:16:08;;;;;;;20.77;9.40;;;6.30;99.90;;;;;;5057337;28;20044;-68
2023/03/18 01:18:35;;;;;;;26.58;9.63;;;6.30;99.90;;;;;;5057217;28;20032;-67
2023/03/18 01:21:01;;;;;;;20.25;10.02;;;6.30;99.90;;;;;;5050459;28;20060;-68
2023/03/18 01:23:29;;;;;;;22.15;9.73;;;6.40;99.90;;;;;;5060599;28;20036;-68
2023/03/18 01:25:55;;;;;;;20.88;9.68;;;6.40;99.90;;;;;;5059510;28;20439;-68
2023/03/18 01:28:21;;;;;;;26.95;9.48;;;6.40;99.90;;;;;;5056339;28;20035;-67
2023/03/18 01:30:47;;;;;;;19.88;10.02;;;6.30;99.90;;;;;;5057383;28;20113;-68
2023/03/18 01:33:14;;;;;;;24.88;9.60;;;6.30;99.90;;;;;;5049913;28;20087;-66
2023/03/18 01:35:40;;;;;;;23.92;9.70;;;6.30;99.90;;;;;;5059178;28;20123;-69
2023/03/18 01:38:06;;;;;;;22.42;9.73;;;6.30;99.90;;;;;;5066085;28;20468;-63
2023/03/18 01:40:35;;;;;;;23.92;9.55;;;6.20;99.90;;;;;;5054940;28;20173;-68
2023/03/18 01:43:19;;;;;;;21.10;9.23;;;6.20;99.90;;;;;;5060401;28;20044;-67
2023/03/18 01:45:50;;;;;;;16.67;9.13;;;6.20;99.90;;;;;;5057005;28;20075;-68
2023/03/18 01:48:18;;;;;;;17.52;9.07;;;6.20;99.90;;;;;;5048738;28;20107;-68
2023/03/18 01:50:51;;;;;;;17.92;8.55;;;6.20;99.90;;;;;;5053168;28;20503;-68
2023/03/18 01:53:18;;;;;;;18.92;8.95;;;6.20;99.90;;;;;;5058017;28;20048;-66
2023/03/18 01:55:46;;;;;;;18.00;8.65;;;6.10;99.90;;;;;;5063332;28;20071;-66
2023/03/18 01:58:20;;;;;;;21.63;9.25;;;6.10;99.90;;;;;;5048234;28;20397;-68
2023/03/18 02:00:52;;;;;;;17.70;8.35;;;6.00;99.90;;;;;;5047607;28;20040;-68
2023/03/18 02:03:19;;;;;;;22.08;8.63;;;6.00;99.90;;;;;;5056879;28;20119;-64
2023/03/18 02:05:48;;;;;;;20.80;8.88;;;6.00;99.90;;;;;;5058128;28;20100;-68
2023/03/18 02:08:15;;;;;;;21.60;9.02;;;6.00;99.90;;;;;;5049121;28;20397;-67
2023/03/18 02:10:41;;;;;;;22.38;9.05;;;6.00;99.90;;;;;;5044837;28;20059;-68
2023/03/18 02:13:09;;;;;;;17.70;8.02;;;6.00;99.90;;;;;;5039707;28;20079;-63
2023/03/18 02:15:43;;;;;;;20.02;9.35;;;6.00;99.90;;;;;;5045344;28;20036;-69
2023/03/18 02:18:32;;;;;;;19.30;8.38;;;5.90;99.90;;;;;;5042787;28;20025;-64
2023/03/18 02:21:19;;;;;;;17.77;8.82;;;5.90;99.90;;;;;;5054531;28;20068;-68
2023/03/18 02:24:21;;;;;;;21.77;8.40;;;5.80;99.90;;;;;;5059693;28;20071;-68
2023/03/18 02:27:00;;;;;;;18.00;8.57;;;5.80;99.90;;;;;;5055022;28;20031;-68
2023/03/18 02:29:33;;;;;;;19.17;7.53;;;5.80;99.90;;;;;;5058043;28;20332;-68
2023/03/18 02:32:05;;;;;;;19.00;8.05;;;5.80;99.90;;;;;;5056116;28;20033;-66
2023/03/18 02:34:36;;;;;;;19.52;8.40;;;5.70;99.90;;;;;;5060268;28;20024;-68
2023/03/18 02:37:02;;;;;;;17.63;8.23;;;5.70;99.90;;;;;;5057899;28;20068;-68
2023/03/18 02:39:30;;;;;;;16.85;7.45;;;5.70;99.90;;;;;;5049197;28;20603;-68
2023/03/18 02:41:56;;;;;;;21.05;8.02;;;5.70;99.90;;;;;;5052942;28;20080;-68
2023/03/18 02:44:22;;;;;;;16.45;8.48;;;5.80;99.90;;;;;;5056306;28;20500;-67
2023/03/18 02:46:54;;;;;;;19.20;8.48;;;5.70;99.90;;;;;;5055411;28;20032;-67
2023/03/18 02:49:22;;;;;;;17.10;7.85;;;5.70;99.90;;;;;;5046497;28;20465;-68
2023/03/18 02:51:49;;;;;;;15.50;7.97;;;5.70;99.90;;;;;;5045548;28;20079;-66
2023/03/18 02:54:19;;;;;;;18.13;8.05;;;5.60;99.90;;;;;;5054413;28;20037;-68
2023/03/18 02:56:45;;;;;;;18.08;8.45;;;5.50;99.90;;;;;;5053903;28;20037;-68
2023/03/18 02:59:11;;;;;;;20.25;8.07;;;5.40;99.90;;;;;;5056205;28;20044;-62
2023/03/18 03:01:38;;;;;;;17.80;7.80;;;5.30;99.90;;;;;;5046498;28;20087;-67
2023/03/18 03:04:05;;;;;;;17.70;8.02;;;5.30;99.90;;;;;;5060084;28;20063;-67
2023/03/18 03:06:31;;;;;;;19.38;8.25;;;5.40;99.90;;;;;;5049453;28;20025;-68
2023/03/18 03:08:57;;;;;;;15.48;7.93;;;5.40;99.90;;;;;;5053138;28;20041;-67
2023/03/18 03:11:23;;;;;;;17.73;8.32;;;5.50;99.90;;;;;;5052409;28;20488;-68
2023/03/18 03:13:49;;;;;;;18.48;8.65;;;5.40;99.90;;;;;;5057834;28;20032;-66
2023/03/18 03:16:16;;;;;;;15.95;8.35;;;5.40;99.90;;;;;;5065228;28;20086;-68
2023/03/18 03:18:43;;;;;;;20.52;8.70;;;5.50;99.90;;;;;;5056873;28;20028;-67
2023/03/18 03:21:09;;;;;;;16.60;8.40;;;5.40;99.90;;;;;;5047041;28;20060;-68
2023/03/18 03:23:36;;;;;;;22.73;9.00;;;5.40;99.90;;;;;;5056413;28;20037;-68
2023/03/18 03:26:02;;;;;;;20.42;9.02;;;5.30;99.90;;;;;;5058631;28;20488;-64
2023/03/18 03:28:27;;;;;;;19.30;9.20;;;5.30;99.90;;;;;;5058388;28;20028;-67
2023/03/18 03:30:54;;;;;;;16.70;8.50;;;5.30;99.90;;;;;;5051675;28;20033;-68
2023/03/18 03:33:21;;;;;;;21.83;8.60;;;5.30;99.90;;;;;;5057759;28;20016;-69
2023/03/18 03:35:47;;;;;;;19.83;8.40;;;5.30;99.90;;;;;;5050421;28;20039;-68
2023/03/18 03:38:12;;;;;;;16.90;8.73;;;5.30;99.90;;;;;;5051575;28;20045;-63
2023/03/18 03:40:38;;;;;;;20.40;8.55;;;5.40;99.90;;;;;;5056417;28;20856;-66
2023/03/18 03:43:05;;;;;;;23.92;8.90;;;5.40;99.90;;;;;;5048989;28;20045;-68
2023/03/18 03:45:31;;;;;;;21.73;8.52;;;5.40;99.90;;;;;;5050838;28;20576;-67
2023/03/18 03:47:57;;;;;;;18.20;8.02;;;5.50;99.90;;;;;;5067819;28;20029;-68
2023/03/18 03:50:23;;;;;;;17.63;7.60;;;5.60;99.90;;;;;;5046931;28;20033;-66
2023/03/18 03:52:48;;;;;;;21.27;8.35;;;5.70;99.90;;;;;;5055209;28;20037;-67
2023/03/18 03:55:18;;;;;;;20.25;8.40;;;5.80;99.90;;;;;;5057556;28;20025;-64
2023/03/18 03:57:44;;;;;;;16.52;7.55;;;5.80;99.90;;;;;;5039145;28;20786;-68
2023/03/18 04:00:14;;;;;;;19.40;8.15;;;5.80;99.90;;;;;;5057829;28;20039;-68
2023/03/18 04:02:40;;;;;;;18.95;8.52;;;5.80;99.90;;;;;;5056224;28;20033;-68
2023/03/18 04:05:07;;;;;;;17.63;8.38;;;5.80;99.90;;;;;;5053882;28;20367;-68
2023/03/18 04:07:32;;;;;;;19.02;8.18;;;5.70;99.90;;;;;;5039781;28;20654;-68
2023/03/18 04:09:58;;;;;;;17.70;8.25;;;5.70;99.90;;;;;;5057286;28;20029;-67
2023/03/18 04:12:24;;;;;;;14.52;7.10;;;5.70;99.90;;;;;;5059500;28;20268;-67
2023/03/18 04:14:50;;;;;;;22.02;9.15;;;5.70;99.90;;;;;;5057970;28;20480;-68
2023/03/18 04:17:15;;;;;;;22.63;8.75;;;5.70;99.90;;;;;;5053911;28;20067;-63
2023/03/18 04:19:41;;;;;;;18.73;8.57;;;5.60;99.90;;;;;;5057935;28;20477;-68
2023/03/18 04:22:07;;;;;;;22.70;10.30;;;5.50;99.90;;;;;;5057449;28;20036;-68
2023/03/18 04:24:32;;;;;;;18.65;8.63;;;5.40;99.90;;;;;;5059014;28;20481;-67
2023/03/18 04:26:58;;;;;;;22.38;8.77;;;5.20;99.90;;;;;;5057768;28;20120;-66
2023/03/18 04:29:24;;;;;;;20.98;8.75;;;5.00;99.90;;;;;;5067513;28;20436;-66
2023/03/18 04:31:50;;;;;;;20.13;8.27;;;4.90;99.90;;;;;;5055946;28;20045;-68
2023/03/18 04:34:16;;;;;;;15.18;8.00;;;5.00;99.90;;;;;;5061021;28;20028;-63
2023/03/18 04:36:41;;;;;;;16.10;8.68;;;5.10;99.90;;;;;;5059697;28;20127;-68
2023/03/18 04:39:08;;;;;;;25.38;9.68;;;5.20;99.90;;;;;;5044491;28;20385;-68
2023/03/18 04:41:36;;;;;;;23.08;9.57;;;5.30;99.90;;;;;;5046920;28;20781;-67
2023/03/18 04:44:02;;;;;;;18.20;9.95;;;5.30;99.90;;;;;;5064492;28;20041;-68
2023/03/18 04:46:29;;;;;;;19.85;9.02;;;5.20;99.90;;;;;;5065930;28;20416;-68
2023/03/18 04:48:56;;;;;;;17.35;8.60;;;5.20;99.90;;;;;;5060481;28;20032;-68
2023/03/18 04:51:23;;;;;;;19.88;9.07;;;5.20;99.90;;;;;;5058695;28;20051;-67
2023/03/18 04:53:48;;;;;;;20.30;9.98;;;5.30;99.90;;;;;;5056803;28;20043;-67
2023/03/18 04:56:14;;;;;;;23.38;11.10;;;5.20;99.90;;;;;;5049639;28;20143;-68
2023/03/18 04:58:40;;;;;;;25.45;11.40;;;5.20;99.90;;;;;;5062336;28;20025;-68
2023/03/18 05:01:05;;;;;;;22.58;11.05;;;5.20;99.90;;;;;;5054200;28;20434;-68
2023/03/18 05:03:31;;;;;;;21.02;9.60;;;5.20;99.90;;;;;;5058994;28;20032;-68
2023/03/18 05:05:57;;;;;;;20.17;10.32;;;5.20;99.90;;;;;;5057201;28;20107;-68
2023/03/18 05:08:22;;;;;;;22.85;9.75;;;5.10;99.90;;;;;;5062101;28;20107;-67
2023/03/18 05:10:51;;;;;;;24.73;9.10;;;5.00;99.90;;;;;;5057490;28;20111;-68
2023/03/18 05:13:17;;;;;;;20.85;9.20;;;5.00;99.90;;;;;;5054252;28;20481;-64
2023/03/18 05:15:43;;;;;;;23.15;9.32;;;5.00;99.90;;;;;;5047272;28;20028;-67
2023/03/18 05:18:08;;;;;;;21.08;9.18;;;4.90;99.90;;;;;;5051417;28;20135;-67
2023/03/18 05:20:34;;;;;;;19.33;9.75;;;4.90;99.90;;;;;;5059755;28;20060;-66
2023/03/18 05:23:00;;;;;;;19.50;9.68;;;4.80;99.90;;;;;;5061939;28;20043;-67
2023/03/18 05:25:26;;;;;;;21.52;9.75;;;4.70;99.90;;;;;;5061719;28;20029;-68
2023/03/18 05:27:53;;;;;;;20.67;9.48;;;4.70;99.90;;;;;;5059119;28;20025;-66
2023/03/18 05:30:19;;;;;;;19.88;9.13;;;4.60;99.90;;;;;;5045623;28;20045;-63
2023/03/18 05:32:46;;;;;;;17.27;8.55;;;4.70;99.90;;;;;;5046318;28;20040;-69
2023/03/18 05:35:12;;;;;;;17.10;8.32;;;4.80;99.90;;;;;;5054207;28;20368;-68
2023/03/18 05:37:38;;;;;;;22.63;9.82;;;4.70;99.90;;;;;;5061303;28;20481;-69
2023/03/18 05:40:08;;;;;;;24.30;10.80;;;4.80;99.90;;;;;;5059636;28;20105;-68
2023/03/18 05:42:34;;;;;;;;;;;4.80;99.90;;;;;;5057458;28;20485;-67
2023/03/18 05:45:01;;;;;;;19.33;8.77;;;4.80;99.90;;;;;;5062494;28;19923;-68
2023/03/18 05:47:26;;;;;;;20.27;8.95;;;4.80;99.90;;;;;;5036235;28;20048;-69
2023/03/18 05:49:52;;;;;;;17.52;8.93;;;4.70;99.90;;;;;;5047982;28;20547;-67
2023/03/18 05:52:18;;;;;;;23.80;9.52;;;4.80;99.90;;;;;;5051971;28;20112;-66
2023/03/18 05:54:44;;;;;;;24.10;9.75;;;4.70;99.90;;;;;;5046637;28;20871;-67
2023/03/18 05:57:10;;;;;;;18.08;9.27;;;4.80;99.90;;;;;;5060922;28;20030;-68
2023/03/18 05:59:37;;;;;;;20.42;9.63;;;4.80;99.90;;;;;;5052995;28;20039;-68
2023/03/18 06:02:02;;;;;;;17.63;8.98;;;4.70;99.90;;;;;;5043830;28;20121;-67
2023/03/18 06:04:28;;;;;;;20.42;8.80;;;4.60;99.90;;;;;;5063093;28;20119;-68
2023/03/18 06:06:54;;;;;;;15.98;8.60;;;4.60;99.90;;;;;;5048497;28;20492;-68
2023/03/18 06:09:21;;;;;;;18.15;9.02;;;4.60;99.90;;;;;;5048339;28;20029;-63
2023/03/18 06:11:46;;;;;;;18.58;8.68;;;4.60;99.90;;;;;;5058967;28;20032;-70
2023/03/18 06:14:13;;;;;;;18.70;8.65;;;4.60;99.90;;;;;;5050228;28;20081;-68
2023/03/18 06:16:40;;;;;;;21.92;8.77;;;4.70;99.90;;;;;;5060674;28;20031;-69
2023/03/18 06:19:06;;;;;;;18.73;8.80;;;4.70;99.90;;;;;;5046984;28;20018;-67
2023/03/18 06:21:33;;;;;;;20.05;9.57;;;4.80;99.90;;;;;;5037346;28;20144;-70
2023/03/18 06:23:59;;;;;;;21.73;9.00;;;4.80;99.90;;;;;;5053856;28;20032;-69
2023/03/18 06:26:26;;;;;;;21.27;9.60;;;4.80;99.90;;;;;;5042275;28;20048;-64
2023/03/18 06:28:52;;;;;;;19.60;8.82;;;4.90;99.90;;;;;;5043510;28;20021;-70
2023/03/18 06:31:17;;;;;;;16.50;8.73;;;4.90;99.90;;;;;;5056873;28;20039;-70
2023/03/18 06:33:43;;;;;;;20.45;8.90;;;5.00;99.90;;;;;;5057233;28;20099;-69
2023/03/18 06:36:09;;;;;;;16.83;8.27;;;5.00;99.90;;;;;;5063236;28;20036;-68
2023/03/18 06:38:35;;;;;;;17.45;8.60;;;5.10;99.90;;;;;;5047099;28;20025;-70
2023/03/18 06:41:01;;;;;;;17.10;8.10;;;5.10;99.90;;;;;;5047935;28;20342;-70
2023/03/18 06:43:27;;;;;;;22.05;8.90;;;5.20;99.90;;;;;;5061896;28;20476;-70
2023/03/18 06:45:52;;;;;;;18.15;8.95;;;5.20;99.90;;;;;;5048170;28;20086;-68
2023/03/18 06:48:18;;;;;;;17.05;8.45;;;5.30;99.90;;;;;;5041625;28;20086;-70
2023/03/18 06:50:44;;;;;;;16.13;7.38;;;5.30;99.90;;;;;;5046111;28;20469;-69
2023/03/18 06:53:11;;;;;;;14.85;7.50;;;5.30;99.90;;;;;;5052685;28;20052;-70
2023/03/18 06:55:37;;;;;;;18.42;8.68;;;5.20;99.90;;;;;;5054010;28;20040;-70
2023/03/18 06:58:04;;;;;;;16.92;8.65;;;5.20;99.90;;;;;;5048539;28;20036;-69
2023/03/18 07:00:31;;;;;;;20.23;8.18;;;5.20;99.90;;;;;;5058795;28;20480;-68
2023/03/18 07:02:56;;;;;;;16.65;8.27;;;5.30;99.90;;;;;;5062188;28;20037;-70
2023/03/18 07:05:23;;;;;;;19.98;8.98;;;5.40;99.90;;;;;;5066673;28;20037;-65
2023/03/18 07:07:49;;;;;;;14.32;7.93;;;5.50;99.90;;;;;;5063108;28;20037;-68
2023/03/18 07:10:21;;;;;;;17.65;9.18;;;5.50;99.90;;;;;;5055155;28;20029;-70
2023/03/18 07:12:49;;;;;;;16.02;8.32;;;5.60;99.90;;;;;;5055891;28;20028;-70
2023/03/18 07:15:15;;;;;;;16.95;8.10;;;5.70;99.90;;;;;;5060900;28;20071;-70
2023/03/18 07:17:41;;;;;;;17.10;8.43;;;5.70;99.90;;;;;;5052523;28;20032;-69
2023/03/18 07:20:07;;;;;;;16.52;8.10;;;5.80;99.90;;;;;;5054733;28;20377;-69
2023/03/18 07:22:33;;;;;;;14.65;8.13;;;5.90;99.90;;;;;;5050295;28;20120;-68
2023/03/18 07:24:58;;;;;;;18.67;8.52;;;6.00;99.90;;;;;;5050767;28;20024;-69
2023/03/18 07:27:24;;;;;;;19.95;9.30;;;6.20;99.90;;;;;;5050908;28;20037;-64
2023/03/18 07:29:50;;;;;;;15.20;8.32;;;6.20;99.90;;;;;;5057633;28;20025;-70
2023/03/18 07:32:17;;;;;;;17.65;8.13;;;6.30;99.90;;;;;;5059313;28;20381;-70
2023/03/18 07:34:43;;;;;;;17.85;7.93;;;6.50;99.90;;;;;;5061183;28;20484;-67
2023/03/18 07:37:09;;;;;;;23.00;9.88;;;6.70;99.90;;;;;;5050799;28;20071;-68
2023/03/18 07:39:36;;;;;;;19.05;9.00;;;6.80;99.90;;;;;;5050085;28;20500;-67
2023/03/18 07:42:01;;;;;;;19.67;8.32;;;6.90;99.90;;;;;;5045386;28;20131;-69
2023/03/18 07:44:27;;;;;;;17.70;8.13;;;7.00;99.90;;;;;;5054822;28;20434;-65
2023/03/18 07:46:53;;;;;;;17.38;8.57;;;7.10;99.90;;;;;;5047492;28;20033;-69
2023/03/18 07:49:19;;;;;;;21.05;9.68;;;7.20;99.90;;;;;;5057110;28;20431;-69
2023/03/18 07:51:44;;;;;;;17.23;9.27;;;7.40;99.90;;;;;;5054897;28;20068;-69
2023/03/18 07:54:10;;;;;;;16.77;8.35;;;7.60;99.90;;;;;;5054314;28;20063;-70
2023/03/18 07:56:36;;;;;;;18.05;8.70;;;7.80;99.90;;;;;;5051969;28;20523;-70
2023/03/18 07:59:02;;;;;;;21.45;9.00;;;8.00;99.90;;;;;;5050727;28;20627;-66
2023/03/18 08:01:30;;;;;;;17.70;8.70;;;8.10;99.90;;;;;;5050294;28;20421;-62
2023/03/18 08:03:56;;;;;;;17.75;9.10;;;8.40;99.90;;;;;;5051263;28;20064;-66
2023/03/18 08:06:24;;;;;;;15.15;8.50;;;8.60;99.90;;;;;;5048321;28;20025;-66
2023/03/18 08:08:50;;;;;;;15.43;8.55;;;8.80;99.90;;;;;;5046412;28;20025;-67
2023/03/18 08:11:15;;;;;;;16.05;8.02;;;9.00;99.90;;;;;;5050205;28;20056;-66
2023/03/18 08:13:43;;;;;;;20.17;8.70;;;9.20;99.90;;;;;;5029435;28;20037;-66
2023/03/18 08:16:09;;;;;;;18.50;8.52;;;9.50;99.90;;;;;;5048847;28;20536;-65
2023/03/18 08:18:35;;;;;;;20.42;9.00;;;9.70;99.90;;;;;;5047882;28;20037;-65
2023/03/18 08:21:01;;;;;;;14.68;7.90;;;9.90;99.90;;;;;;5047898;28;20397;-66
2023/03/18 08:23:26;;;;;;;19.85;8.55;;;10.20;99.90;;;;;;5048937;28;20080;-65
2023/03/18 08:25:52;;;;;;;18.55;8.85;;;10.40;99.90;;;;;;5045274;28;20151;-66
2023/03/18 08:28:18;;;;;;;16.30;8.57;;;10.60;99.90;;;;;;5049536;28;20506;-66
2023/03/18 08:30:45;;;;;;;16.83;7.43;;;10.80;99.90;;;;;;5049013;28;20052;-65
2023/03/18 08:33:11;;;;;;;20.25;7.55;;;11.00;99.90;;;;;;5050230;28;20025;-66
2023/03/18 08:35:40;;;;;;;10.55;5.32;;;11.20;99.90;;;;;;5048857;28;20354;-66
2023/03/18 08:38:06;;;;;;;13.77;6.95;;;11.50;99.90;;;;;;5066985;28;20089;-66
2023/03/18 08:40:33;;;;;;;17.98;9.07;;;11.70;99.90;;;;;;5060472;28;20473;-62
2023/03/18 08:42:59;;;;;;;17.00;9.07;;;11.80;99.90;;;;;;5055681;28;20474;-65
2023/03/18 08:45:27;;;;;;;19.48;8.35;;;12.00;99.90;;;;;;5051455;28;20048;-65
2023/03/18 08:47:54;;;;;;;19.65;6.72;;;12.20;99.90;;;;;;5056548;28;20090;-65
2023/03/18 08:50:19;;;;;;;12.57;7.68;;;12.40;99.90;;;;;;5051478;28;20090;-65
2023/03/18 08:52:46;;;;;;;14.38;6.03;;;12.70;99.90;;;;;;5048459;28;20483;-66
2023/03/18 08:55:11;;;;;;;11.82;6.38;;;12.90;99.90;;;;;;5058013;28;20032;-66
2023/03/18 08:57:37;;;;;;;10.88;6.18;;;13.10;99.90;;;;;;5048351;28;20497;-65
2023/03/18 09:00:04;;;;;;;7.25;2.70;;;13.20;99.90;;;;;;5058290;28;20110;-66
2023/03/18 09:02:30;;;;;;;7.53;2.85;;;13.40;99.90;;;;;;5057587;28;20033;-62
2023/03/18 09:04:56;;;;;;;7.97;2.10;;;13.50;99.90;;;;;;5059077;28;20028;-66
2023/03/18 09:07:21;;;;;;;10.63;2.72;;;13.60;99.90;;;;;;5048880;28;20115;-66
2023/03/18 09:09:47;;;;;;;7.32;2.58;;;13.60;99.90;;;;;;5058435;28;20112;-66
2023/03/18 09:12:13;;;;;;;6.38;1.80;;;13.90;99.90;;;;;;5058624;28;20543;-65
2023/03/18 09:14:41;;;;;;;6.78;2.17;;;14.00;99.90;;;;;;5060040;28;20031;-65
2023/03/18 09:17:07;;;;;;;6.65;2.03;;;14.20;99.90;;;;;;5069102;28;20016;-66
2023/03/18 09:19:33;;;;;;;3.40;1.85;;;14.20;99.90;;;;;;5050510;28;20407;-63
2023/03/18 09:21:59;;;;;;;5.00;1.90;;;14.20;99.90;;;;;;5051200;28;20547;-66
2023/03/18 09:24:25;;;;;;;3.00;1.20;;;14.30;99.00;;;;;;5065915;28;20077;-66
2023/03/18 09:26:51;;;;;;;3.63;1.60;;;14.20;99.80;;;;;;5052727;28;20028;-66
2023/03/18 09:29:17;;;;;;;5.68;2.50;;;14.30;98.00;;;;;;5055900;28;20028;-66
2023/03/18 09:31:42;;;;;;;5.38;1.70;;;14.30;98.80;;;;;;5058786;28;20055;-66
2023/03/18 09:34:12;;;;;;;6.68;2.03;;;14.40;96.50;;;;;;5053638;28;20051;-63
2023/03/18 09:36:38;;;;;;;7.28;3.10;;;14.50;97.70;;;;;;5064672;28;20047;-66
2023/03/18 09:39:04;;;;;;;3.63;1.70;;;14.60;96.20;;;;;;5054714;28;20029;-65
2023/03/18 09:41:51;;;;;;;6.65;1.92;;;14.70;96.40;;;;;;5048895;28;20118;-66
2023/03/18 09:44:28;;;;;;;3.38;1.40;;;14.70;95.70;;;;;;5055107;28;20469;-66
2023/03/18 09:47:21;;;;;;;2.70;1.40;;;14.80;94.20;;;;;;5054659;28;20025;-66
2023/03/18 09:50:11;;;;;;;7.20;3.17;;;14.80;95.70;;;;;;5048532;28;20032;-66
2023/03/18 09:52:43;;;;;;;4.97;2.25;;;14.90;92.00;;;;;;5061227;28;20044;-66
2023/03/18 09:55:27;;;;;;;4.75;1.80;;;15.10;94.20;;;;;;5056788;28;20389;-66
2023/03/18 09:57:57;;;;;;;4.32;1.60;;;15.30;96.60;;;;;;5056218;28;20068;-66
2023/03/18 10:00:33;;;;;;;5.57;2.10;;;15.30;93.30;;;;;;5059613;28;20028;-66
2023/03/18 10:03:08;;;;;;;9.18;1.90;;;15.40;93.20;;;;;;5061723;28;20047;-66
2023/03/18 10:05:36;;;;;;;6.00;1.55;;;15.40;93.20;;;;;;5052569;28;20082;-63
2023/03/18 10:08:52;;;;;;;4.63;1.65;;;15.70;94.60;;;;;;5051868;28;20017;-64
2023/03/18 10:11:25;;;;;;;7.57;1.77;;;15.80;93.90;;;;;;5030005;28;20045;-66
2023/03/18 10:14:06;;;;;;;4.72;1.85;;;15.80;92.20;;;;;;5041191;28;20421;-66
2023/03/18 10:16:43;;;;;;;7.22;1.70;;;15.70;90.10;;;;;;5057911;28;20063;-67
2023/03/18 10:19:09;;;;;;;3.33;1.30;;;15.70;90.20;;;;;;5054256;28;20067;-66
2023/03/18 10:22:03;;;;;;;3.72;1.75;;;15.90;90.00;;;;;;5048815;28;20738;-62
2023/03/18 10:24:34;;;;;;;4.70;1.75;;;16.00;90.00;;;;;;5051045;28;20450;-65
2023/03/18 10:27:23;;;;;;;;;;;15.90;89.20;;;;;;5054458;28;20025;-66
2023/03/18 10:30:04;;;;;;;4.13;1.80;;;16.00;91.50;;;;;;5046874;28;20055;-65
2023/03/18 10:32:57;;;;;;;3.67;1.45;;;16.40;93.10;;;;;;5046476;28;20425;-66
2023/03/18 10:35:36;;;;;;;3.88;1.45;;;16.50;84.20;;;;;;5050520;28;20040;-66
2023/03/18 10:38:11;;;;;;;3.25;1.52;;;16.40;87.20;;;;;;5042649;28;20025;-66
2023/03/18 10:40:40;;;;;;;2.50;1.38;;;16.50;90.90;;;;;;5052986;28;20445;-62
2023/03/18 10:43:30;;;;;;;8.88;1.73;;;16.60;87.10;;;;;;5046317;28;20067;-65
2023/03/18 10:46:02;;;;;;;4.63;1.88;;;16.50;86.70;;;;;;5054604;28;20072;-66
2023/03/18 10:48:53;;;;;;;5.13;1.90;;;16.70;92.00;;;;;;5035897;28;20037;-66
2023/03/18 10:51:44;;;;;;;3.38;1.55;;;17.00;86.80;;;;;;5022116;28;20050;-66
2023/03/18 10:54:28;;;;;;;6.25;1.75;;;16.90;85.00;;;;;;5053779;28;20037;-66
2023/03/18 10:56:53;;;;;;;3.50;1.60;;;16.70;83.00;;;;;;5050297;28;20758;-65
2023/03/18 10:59:23;;;;;;;4.65;1.25;;;17.00;81.90;;;;;;5041711;28;20033;-66
2023/03/18 11:02:19;;;;;;;4.32;1.60;;;17.40;85.60;;;;;;5041060;28;20118;-66
2023/03/18 11:04:54;;;;;;;3.15;1.52;;;17.40;80.10;;;;;;5046811;28;20113;-65
2023/03/18 11:07:27;;;;;;;4.40;1.58;;;17.10;83.00;;;;;;5050414;28;20029;-66
2023/03/18 11:09:53;;;;;;;3.15;1.63;;;17.20;81.80;;;;;;5048988;28;20626;-67
2023/03/18 11:12:27;;;;;;;5.60;1.98;;;17.70;84.90;;;;;;5052111;28;20037;-65
2023/03/18 11:14:55;;;;;;;4.28;1.40;;;17.80;86.00;;;;;;5046985;28;20064;-65
2023/03/18 11:17:26;;;;;;;4.90;1.58;;;17.90;79.50;;;;;;5055237;28;20053;-63
2023/03/18 11:20:15;;;;;;;3.08;1.52;;;18.00;81.70;;;;;;5025187;28;20694;-65
2023/03/18 11:22:46;;;;;;;5.60;1.83;;;18.10;85.30;;;;;;5056123;28;20041;-63
2023/03/18 11:25:25;;;;;;;3.20;1.50;;;17.90;76.80;;;;;;5054278;28;20073;-66
2023/03/18 11:28:22;;;;;;;3.17;1.42;;;18.00;84.60;;;;;;5041197;28;20041;-66
2023/03/18 11:30:51;;;;;;;3.47;1.60;;;18.20;75.80;;;;;;5057980;28;20045;-66
2023/03/18 11:33:18;;;;;;;3.67;1.33;;;18.40;79.80;;;;;;5056918;28;20025;-65
2023/03/18 11:35:52;;;;;;;6.20;1.30;;;18.20;79.60;;;;;;5048313;28;20033;-66
2023/03/18 11:38:37;;;;;;;5.88;1.38;;;18.00;77.40;;;;;;5049088;28;20029;-65
2023/03/18 11:41:24;;;;;;;5.60;1.65;;;18.00;74.60;;;;;;5053627;28;20695;-66
2023/03/18 11:44:17;;;;;;;4.05;1.52;;;18.10;75.80;;;;;;5058907;28;20029;-66
2023/03/18 11:46:46;;;;;;;2.63;1.50;;;18.30;70.80;;;;;;5064411;28;20040;-62
2023/03/18 11:49:15;;;;;;;5.38;1.60;;;18.50;74.20;;;;;;5059105;28;20508;-66
2023/03/18 11:51:56;;;;;;;6.03;1.30;;;18.60;73.90;;;;;;5054769;28;20033;-63
2023/03/18 11:54:46;;;;;;;3.17;1.65;;;18.80;71.00;;;;;;5067034;28;20032;-66
2023/03/18 11:57:17;;;;;;;3.42;1.17;;;18.50;69.70;;;;;;5069397;28;20021;-66
2023/03/18 12:00:04;;;;;;;3.10;1.27;;;18.50;73.60;;;;;;5060618;28;20036;-63
2023/03/18 12:02:49;;;;;;;9.75;1.30;;;18.70;64.50;;;;;;5040396;28;20064;-66
2023/03/18 12:05:43;;;;;;;3.38;1.60;;;18.90;69.70;;;;;;5048576;28;20389;-66
2023/03/18 12:08:46;;;;;;;3.80;1.45;;;18.90;75.70;;;;;;5050360;28;20043;-67
2023/03/18 12:11:18;;;;;;;5.15;1.58;;;19.10;72.20;;;;;;5052548;28;20031;-71
2023/03/18 12:13:51;;;;;;;2.92;1.10;;;19.10;68.70;;;;;;5045167;28;20051;-67
2023/03/18 12:16:26;;;;;;;6.70;1.38;;;19.30;66.90;;;;;;5029267;28;20478;-72
2023/03/18 12:19:01;;;;;;;2.42;1.27;;;19.30;64.30;;;;;;5040617;28;20051;-70
2023/03/18 12:21:42;;;;;;;3.72;1.35;;;19.10;65.80;;;;;;5047699;28;20049;-71
2023/03/18 12:24:29;;;;;;;4.30;1.58;;;18.70;67.00;;;;;;5045217;28;20040;-68
2023/03/18 12:27:14;;;;;;;4.45;1.60;;;18.60;63.30;;;;;;5049634;28;20036;-70
2023/03/18 12:30:05;;;;;;;5.70;1.75;;;18.50;65.00;;;;;;5045986;28;20710;-70
2023/03/18 12:32:48;;;;;;;2.20;1.10;;;18.80;65.30;;;;;;5045640;28;20481;-69
2023/03/18 12:35:42;;;;;;;7.15;1.50;;;19.30;59.30;;;;;;5048969;28;20051;-67
2023/03/18 12:38:07;;;;;;;3.95;1.52;;;19.60;63.30;;;;;;5046567;28;20021;-69
2023/03/18 12:40:51;;;;;;;4.45;1.55;;;20.00;63.70;;;;;;5040975;28;20037;-69
2023/03/18 12:43:26;;;;;;;7.47;1.77;;;20.00;59.90;;;;;;5061177;28;20028;-71
2023/03/18 12:45:58;;;;;;;3.42;1.30;;;20.10;61.30;;;;;;5044306;28;20421;-70
2023/03/18 12:48:34;;;;;;;2.58;1.40;;;20.30;59.30;;;;;;5051693;28;20531;-70
2023/03/18 12:51:06;;;;;;;5.45;1.40;;;20.40;59.20;;;;;;5032586;28;20025;-70
2023/03/18 12:53:51;;;;;;;4.00;1.55;;;20.80;59.10;;;;;;5056703;28;20565;-70
2023/03/18 12:56:23;;;;;;;6.85;1.88;;;20.80;59.00;;;;;;5050169;28;20022;-70
2023/03/18 12:58:59;;;;;;;4.47;1.30;;;20.40;57.90;;;;;;5049643;28;20086;-70
2023/03/18 13:01:34;;;;;;;3.67;1.50;;;20.30;58.50;;;;;;5049180;28;20473;-70